createdAt,value
2022-09-18T00:01:34.269Z,4.47
2022-09-18T00:04:04.152Z,4.18
2022-09-18T00:06:35.060Z,4.80
2022-09-18T00:09:06.046Z,5.53
2022-09-18T00:11:39.812Z,5.10
2022-09-18T00:14:09.496Z,5.18
2022-09-18T00:16:37.620Z,4.38
2022-09-18T00:19:06.580Z,5.85
2022-09-18T00:21:36.044Z,5.07
2022-09-18T00:24:05.870Z,4.80
2022-09-18T00:26:34.083Z,4.20
2022-09-18T00:29:02.333Z,4.65
2022-09-18T00:31:32.948Z,5.07
2022-09-18T00:34:03.295Z,4.40
2022-09-18T00:36:31.117Z,4.13
2022-09-18T00:38:59.644Z,4.57
2022-09-18T00:41:33.859Z,4.00
2022-09-18T00:44:29.293Z,4.37
2022-09-18T00:47:03.228Z,4.30
2022-09-18T00:49:31.480Z,4.57
2022-09-18T00:52:00.663Z,3.85
2022-09-18T00:54:37.550Z,3.40
2022-09-18T00:57:14.162Z,4.00
2022-09-18T00:59:45.639Z,3.70
2022-09-18T01:02:13.253Z,4.20
2022-09-18T01:04:40.885Z,3.53
2022-09-18T01:07:29.567Z,3.38
2022-09-18T01:10:12.152Z,3.75
2022-09-18T01:13:00.547Z,3.87
2022-09-18T01:16:16.242Z,3.25
2022-09-18T01:18:59.350Z,3.65
2022-09-18T01:21:48.084Z,4.15
2022-09-18T01:24:28.563Z,3.70
2022-09-18T01:26:59.195Z,3.72
2022-09-18T01:30:00.470Z,4.05
2022-09-18T01:32:46.335Z,3.95
2022-09-18T01:35:40.650Z,3.67
2022-09-18T01:38:23.385Z,4.20
2022-09-18T01:40:56.705Z,3.67
2022-09-18T01:43:28.298Z,3.80
2022-09-18T01:45:59.592Z,4.45
2022-09-18T01:48:36.886Z,3.77
2022-09-18T01:51:20.756Z,5.28
2022-09-18T01:53:56.119Z,3.60
2022-09-18T01:56:34.169Z,4.45
2022-09-18T01:59:07.338Z,4.88
2022-09-18T02:01:47.044Z,5.18
2022-09-18T02:04:21.328Z,5.07
2022-09-18T02:07:20.726Z,5.00
2022-09-18T02:09:49.157Z,4.78
2022-09-18T02:12:21.054Z,5.50
2022-09-18T02:14:55.948Z,6.25
2022-09-18T02:17:51.627Z,5.88
2022-09-18T02:20:29.331Z,5.73
2022-09-18T02:23:00.528Z,5.65
2022-09-18T02:25:44.726Z,5.88
2022-09-18T02:28:16.909Z,5.55
2022-09-18T02:30:45.491Z,4.90
2022-09-18T02:33:36.167Z,6.93
2022-09-18T02:36:06.883Z,5.72
2022-09-18T02:39:08.283Z,5.70
2022-09-18T02:41:53.996Z,6.33
2022-09-18T02:44:45.040Z,4.82
2022-09-18T02:47:44.063Z,5.40
2022-09-18T02:50:31.661Z,4.90
2022-09-18T02:53:12.748Z,4.85
2022-09-18T02:55:47.330Z,5.30
2022-09-18T02:58:40.967Z,4.70
2022-09-18T03:01:11.722Z,4.97
2022-09-18T03:03:40.097Z,4.32
2022-09-18T03:06:10.469Z,4.95
2022-09-18T03:08:38.585Z,3.90
2022-09-18T03:11:17.608Z,5.00
2022-09-18T03:13:45.201Z,5.15
2022-09-18T03:16:12.812Z,5.67
2022-09-18T03:18:40.361Z,4.07
2022-09-18T03:21:07.818Z,4.20
2022-09-18T03:23:35.452Z,4.93
2022-09-18T03:26:14.994Z,6.07
2022-09-18T03:28:42.722Z,4.70
2022-09-18T03:31:11.465Z,5.70
2022-09-18T03:33:39.507Z,5.35
2022-09-18T03:36:08.509Z,5.45
2022-09-18T03:38:38.254Z,5.07
2022-09-18T03:41:07.558Z,5.65
2022-09-18T03:43:35.553Z,5.78
2022-09-18T03:46:06.067Z,5.72
2022-09-18T03:48:33.740Z,5.63
2022-09-18T03:51:01.683Z,5.90
2022-09-18T03:53:29.315Z,5.55
2022-09-18T03:56:09.529Z,6.15
2022-09-18T03:58:55.811Z,6.93
2022-09-18T04:01:36.613Z,6.57
2022-09-18T04:04:39.597Z,8.05
2022-09-18T04:07:42.627Z,7.18
2022-09-18T04:10:36.759Z,7.30
2022-09-18T04:13:05.544Z,7.72
2022-09-18T04:15:35.857Z,6.63
2022-09-18T04:18:03.411Z,7.82
2022-09-18T04:20:31.943Z,7.60
2022-09-18T04:23:00.825Z,7.70
2022-09-18T04:25:28.208Z,8.55
2022-09-18T04:27:57.154Z,8.60
2022-09-18T04:30:24.701Z,8.15
2022-09-18T04:32:52.770Z,7.20
2022-09-18T04:35:21.347Z,7.63
2022-09-18T04:37:49.827Z,6.95
2022-09-18T04:40:18.103Z,8.20
2022-09-18T04:42:47.057Z,8.93
2022-09-18T04:45:14.685Z,8.05
2022-09-18T04:47:43.943Z,8.30
2022-09-18T04:50:11.669Z,9.80
2022-09-18T04:52:59.091Z,8.32
2022-09-18T04:55:27.966Z,7.50
2022-09-18T04:57:56.201Z,7.10
2022-09-18T05:00:24.212Z,6.70
2022-09-18T05:02:52.163Z,7.82
2022-09-18T05:05:22.884Z,6.65
2022-09-18T05:07:51.471Z,7.25
2022-09-18T05:10:19.725Z,8.18
2022-09-18T05:12:48.382Z,6.67
2022-09-18T05:15:16.504Z,6.03
2022-09-18T05:17:47.553Z,5.88
2022-09-18T05:20:16.924Z,5.82
2022-09-18T05:22:47.456Z,5.80
2022-09-18T05:25:20.923Z,5.97
2022-09-18T05:27:59.812Z,6.05
2022-09-18T05:30:32.710Z,6.43
2022-09-18T05:33:05.185Z,6.50
2022-09-18T05:35:35.206Z,7.32
2022-09-18T05:38:03.466Z,7.68
2022-09-18T05:40:37.148Z,7.70
2022-09-18T05:43:05.985Z,6.80
2022-09-18T05:45:35.354Z,7.10
2022-09-18T05:48:09.102Z,6.90
2022-09-18T05:50:37.467Z,7.18
2022-09-18T05:53:14.899Z,7.23
2022-09-18T05:55:53.481Z,6.82
2022-09-18T05:58:21.733Z,6.68
2022-09-18T06:00:52.774Z,7.03
2022-09-18T06:03:28.000Z,6.40
2022-09-18T06:05:59.225Z,5.97
2022-09-18T06:08:26.901Z,5.80
2022-09-18T06:10:55.028Z,5.65
2022-09-18T06:13:22.732Z,5.82
2022-09-18T06:15:52.931Z,5.95
2022-09-18T06:18:40.806Z,6.40
2022-09-18T06:21:09.150Z,5.80
2022-09-18T06:23:36.982Z,6.70
2022-09-18T06:26:14.888Z,6.15
2022-09-18T06:28:44.270Z,5.50
2022-09-18T06:31:11.833Z,6.10
2022-09-18T06:33:59.783Z,7.00
2022-09-18T06:36:27.278Z,6.47
2022-09-18T06:39:13.346Z,6.50
2022-09-18T06:41:40.954Z,8.30
2022-09-18T06:44:18.236Z,6.77
2022-09-18T06:46:54.902Z,7.95
2022-09-18T06:49:35.655Z,7.78
2022-09-18T06:52:04.643Z,7.75
2022-09-18T06:54:33.846Z,7.63
2022-09-18T06:57:02.771Z,7.85
2022-09-18T06:59:31.783Z,8.15
2022-09-18T07:02:00.829Z,8.40
2022-09-18T07:04:45.065Z,8.57
2022-09-18T07:07:12.588Z,8.80
2022-09-18T07:09:40.046Z,8.00
2022-09-18T07:12:16.384Z,8.30
2022-09-18T07:14:48.339Z,7.82
2022-09-18T07:17:18.737Z,8.02
2022-09-18T07:19:51.730Z,7.90
2022-09-18T07:22:22.228Z,7.33
2022-09-18T07:24:49.961Z,6.95
2022-09-18T07:27:17.457Z,7.15
2022-09-18T07:29:45.533Z,7.57
2022-09-18T07:32:15.854Z,6.75
2022-09-18T07:34:45.891Z,7.28
2022-09-18T07:37:19.612Z,7.63
2022-09-18T07:39:55.596Z,7.65
2022-09-18T07:42:41.564Z,7.13
2022-09-18T07:45:10.554Z,7.28
2022-09-18T07:47:37.966Z,7.10
2022-09-18T07:50:07.438Z,6.65
2022-09-18T07:52:35.196Z,5.95
2022-09-18T07:55:02.750Z,6.05
2022-09-18T07:57:33.054Z,7.70
2022-09-18T08:00:32.095Z,10.90
2022-09-18T08:03:04.521Z,6.55
2022-09-18T08:05:55.137Z,6.65
2022-09-18T08:08:23.258Z,8.10
2022-09-18T08:11:04.514Z,7.27
2022-09-18T08:13:49.595Z,7.30
2022-09-18T08:16:49.570Z,6.97
2022-09-18T08:19:35.609Z,6.22
2022-09-18T08:22:11.912Z,6.85
2022-09-18T08:24:45.243Z,6.13
2022-09-18T08:27:13.048Z,6.22
2022-09-18T08:29:41.408Z,5.35
2022-09-18T08:32:10.964Z,5.68
2022-09-18T08:34:38.850Z,5.80
2022-09-18T08:37:06.543Z,5.60
2022-09-18T08:39:52.622Z,5.85
2022-09-18T08:43:06.322Z,4.60
2022-09-18T08:45:51.318Z,4.03
2022-09-18T08:48:54.818Z,3.42
2022-09-18T08:51:34.825Z,3.60
2022-09-18T08:54:17.296Z,4.53
2022-09-18T08:57:20.351Z,3.43
2022-09-18T09:00:12.775Z,3.75
2022-09-18T09:02:52.429Z,4.07
2022-09-18T09:05:24.881Z,4.30
2022-09-18T09:08:01.855Z,4.00
2022-09-18T09:10:41.367Z,3.97
2022-09-18T09:13:12.177Z,5.03
2022-09-18T09:16:03.807Z,4.50
2022-09-18T09:18:49.426Z,4.35
2022-09-18T09:21:35.537Z,3.70
2022-09-18T09:24:30.067Z,2.90
2022-09-18T09:27:26.708Z,3.10
2022-09-18T09:30:21.341Z,3.90
2022-09-18T09:33:28.239Z,3.83
2022-09-18T09:36:29.989Z,3.58
2022-09-18T09:39:30.517Z,3.10
2022-09-18T09:42:23.185Z,3.15
2022-09-18T09:45:13.882Z,2.90
2022-09-18T09:47:44.457Z,2.70
2022-09-18T09:50:39.970Z,2.72
2022-09-18T09:53:12.102Z,2.75
2022-09-18T09:56:08.203Z,2.50
2022-09-18T09:58:42.096Z,2.30
2022-09-18T10:01:35.577Z,2.30
2022-09-18T10:04:34.749Z,2.00
2022-09-18T10:07:15.826Z,1.90
2022-09-18T10:10:28.018Z,2.10
2022-09-18T10:13:17.574Z,1.70
2022-09-18T10:15:48.239Z,1.70
2022-09-18T10:18:30.110Z,1.83
2022-09-18T10:21:06.500Z,1.70
2022-09-18T10:23:43.011Z,1.60
2022-09-18T10:26:27.485Z,1.70
2022-09-18T10:28:55.532Z,1.60
2022-09-18T10:31:23.531Z,1.80
2022-09-18T10:33:53.445Z,1.55
2022-09-18T10:36:38.586Z,1.60
2022-09-18T10:39:36.727Z,1.80
2022-09-18T10:42:16.824Z,2.08
2022-09-18T10:45:01.914Z,19.85
2022-09-18T10:47:37.520Z,1.35
2022-09-18T10:50:19.342Z,1.52
2022-09-18T10:52:50.051Z,1.40
2022-09-18T10:55:28.147Z,1.30
2022-09-18T10:58:14.809Z,1.30
2022-09-18T11:01:01.884Z,1.20
2022-09-18T11:03:31.474Z,1.23
2022-09-18T11:06:02.753Z,1.40
2022-09-18T11:08:49.739Z,1.20
2022-09-18T11:11:38.028Z,1.55
2022-09-18T11:14:26.465Z,1.30
2022-09-18T11:17:04.957Z,1.20
2022-09-18T11:19:40.471Z,1.20
2022-09-18T11:22:42.820Z,1.20
2022-09-18T11:25:30.592Z,1.40
2022-09-18T11:28:28.650Z,3.58
2022-09-18T11:31:11.336Z,1.40
2022-09-18T11:33:53.901Z,1.30
2022-09-18T11:36:32.434Z,1.38
2022-09-18T11:39:03.402Z,1.10
2022-09-18T11:41:37.344Z,1.20
2022-09-18T11:44:14.449Z,1.30
2022-09-18T11:47:07.267Z,1.30
2022-09-18T11:49:46.063Z,1.10
2022-09-18T11:52:28.082Z,1.17
2022-09-18T11:55:14.355Z,1.10
2022-09-18T11:57:54.805Z,1.30
2022-09-18T12:00:24.099Z,1.25
2022-09-18T12:03:12.280Z,1.27
2022-09-18T12:05:53.379Z,1.10
2022-09-18T12:08:34.759Z,1.20
2022-09-18T12:11:13.443Z,1.00
2022-09-18T12:13:41.173Z,1.13
2022-09-18T12:16:30.326Z,1.30
2022-09-18T12:19:17.277Z,1.20
2022-09-18T12:22:06.215Z,1.20
2022-09-18T12:24:34.113Z,1.10
2022-09-18T12:27:29.757Z,1.27
2022-09-18T12:30:04.298Z,1.13
2022-09-18T12:32:42.106Z,1.08
2022-09-18T12:35:27.857Z,1.20
2022-09-18T12:38:01.052Z,1.15
2022-09-18T12:40:36.256Z,1.27
2022-09-18T12:43:23.164Z,1.90
2022-09-18T12:46:36.961Z,1.10
2022-09-18T12:49:42.534Z,1.20
2022-09-18T12:52:55.252Z,1.10
2022-09-18T12:55:36.864Z,1.23
2022-09-18T12:58:40.729Z,1.00
2022-09-18T13:01:38.368Z,1.40
2022-09-18T13:04:31.373Z,1.42
2022-09-18T13:07:08.569Z,1.40
2022-09-18T13:10:23.174Z,1.30
2022-09-18T13:13:14.168Z,1.35
2022-09-18T13:15:57.214Z,1.20
2022-09-18T13:18:29.352Z,1.33
2022-09-18T13:21:00.051Z,1.30
2022-09-18T13:23:38.012Z,1.40
2022-09-18T13:26:08.261Z,1.55
2022-09-18T13:28:35.942Z,1.50
2022-09-18T13:31:15.607Z,1.40
2022-09-18T13:34:01.997Z,1.30
2022-09-18T13:36:42.070Z,1.70
2022-09-18T13:39:21.174Z,1.35
2022-09-18T13:41:51.902Z,1.50
2022-09-18T13:44:30.558Z,1.40
2022-09-18T13:47:09.849Z,1.30
2022-09-18T13:49:59.057Z,1.38
2022-09-18T13:52:35.270Z,1.20
2022-09-18T13:55:13.281Z,1.27
2022-09-18T13:57:45.076Z,1.50
2022-09-18T14:00:21.669Z,1.40
2022-09-18T14:02:50.016Z,1.30
2022-09-18T14:05:34.288Z,1.60
2022-09-18T14:08:19.978Z,1.45
2022-09-18T14:10:59.823Z,1.60
2022-09-18T14:13:46.471Z,1.40
2022-09-18T14:16:20.418Z,1.60
2022-09-18T14:18:48.031Z,1.40
2022-09-18T14:21:27.357Z,1.63
2022-09-18T14:24:21.108Z,1.50
2022-09-18T14:26:48.596Z,1.70
2022-09-18T14:29:19.699Z,1.35
2022-09-18T14:31:49.306Z,1.50
2022-09-18T14:34:41.813Z,1.50
2022-09-18T14:37:35.690Z,1.20
2022-09-18T14:40:25.410Z,1.30
2022-09-18T14:42:53.492Z,1.40
2022-09-18T14:45:28.256Z,1.40
2022-09-18T14:47:56.890Z,1.48
2022-09-18T14:50:37.897Z,1.50
2022-09-18T14:53:30.734Z,1.40
2022-09-18T14:55:58.200Z,1.70
2022-09-18T14:58:31.367Z,1.40
2022-09-18T15:00:58.948Z,1.52
2022-09-18T15:03:29.576Z,1.70
2022-09-18T15:06:10.473Z,1.60
2022-09-18T15:08:38.700Z,1.87
2022-09-18T15:11:07.275Z,1.98
2022-09-18T15:13:38.026Z,1.80
2022-09-18T15:16:06.018Z,2.03
2022-09-18T15:18:42.255Z,1.60
2022-09-18T15:21:33.587Z,1.67
2022-09-18T15:24:03.574Z,1.70
2022-09-18T15:26:35.970Z,1.90
2022-09-18T15:29:12.901Z,1.90
2022-09-18T15:31:40.513Z,1.80
2022-09-18T15:34:16.139Z,1.70
2022-09-18T15:36:44.377Z,2.20
2022-09-18T15:39:34.478Z,3.33
2022-09-18T15:42:20.180Z,1.80
2022-09-18T15:44:50.705Z,1.60
2022-09-18T15:47:30.875Z,2.30
2022-09-18T15:49:59.567Z,1.80
2022-09-18T15:53:02.473Z,1.60
2022-09-18T15:55:51.109Z,1.80
2022-09-18T15:58:25.383Z,1.77
2022-09-18T16:01:01.154Z,1.70
2022-09-18T16:03:30.413Z,1.80
2022-09-18T16:06:10.061Z,1.90
2022-09-18T16:08:39.361Z,1.73
2022-09-18T16:11:27.370Z,1.55
2022-09-18T16:13:56.359Z,1.70
2022-09-18T16:16:25.170Z,1.73
2022-09-18T16:19:10.793Z,2.30
2022-09-18T16:21:44.034Z,2.20
2022-09-18T16:24:38.005Z,1.70
2022-09-18T16:27:07.469Z,1.97
2022-09-18T16:29:35.596Z,2.13
2022-09-18T16:32:03.178Z,1.95
2022-09-18T16:34:30.733Z,2.10
2022-09-18T16:36:58.549Z,1.70
2022-09-18T16:39:27.541Z,1.77
2022-09-18T16:41:55.033Z,2.05
2022-09-18T16:44:22.956Z,1.90
2022-09-18T16:46:56.060Z,1.97
2022-09-18T16:49:27.336Z,2.30
2022-09-18T16:51:58.188Z,2.00
2022-09-18T16:54:26.377Z,1.75
2022-09-18T16:57:01.785Z,1.83
2022-09-18T16:59:31.967Z,1.60
2022-09-18T17:02:04.550Z,1.67
2022-09-18T17:04:33.376Z,1.85
2022-09-18T17:07:01.509Z,1.90
2022-09-18T17:09:28.969Z,1.95
2022-09-18T17:11:56.562Z,1.98
2022-09-18T17:14:24.370Z,2.00
2022-09-18T17:16:56.037Z,1.90
2022-09-18T17:19:25.185Z,2.00
2022-09-18T17:21:53.468Z,1.73
2022-09-18T17:24:26.453Z,2.00
2022-09-18T17:26:54.692Z,1.90
2022-09-18T17:29:22.715Z,1.90
2022-09-18T17:31:50.771Z,2.20
2022-09-18T17:34:19.343Z,2.08
2022-09-18T17:36:46.962Z,1.92
2022-09-18T17:39:15.056Z,2.10
2022-09-18T17:41:42.900Z,2.05
2022-09-18T17:44:10.339Z,2.10
2022-09-18T17:46:38.186Z,2.10
2022-09-18T17:49:06.788Z,2.10
2022-09-18T17:51:34.538Z,2.40
2022-09-18T17:54:05.499Z,2.10
2022-09-18T17:56:34.147Z,2.00
2022-09-18T17:59:05.633Z,2.90
2022-09-18T18:01:36.775Z,2.10
2022-09-18T18:04:05.319Z,2.58
2022-09-18T18:06:33.182Z,2.28
2022-09-18T18:09:01.101Z,2.00
2022-09-18T18:11:29.762Z,2.30
2022-09-18T18:14:06.327Z,1.95
2022-09-18T18:16:35.440Z,1.90
2022-09-18T18:19:05.487Z,1.88
2022-09-18T18:21:34.845Z,1.88
2022-09-18T18:24:07.475Z,2.05
2022-09-18T18:26:37.149Z,1.65
2022-09-18T18:29:06.774Z,1.75
2022-09-18T18:31:34.582Z,1.75
2022-09-18T18:34:02.213Z,2.40
2022-09-18T18:36:32.470Z,1.63
2022-09-18T18:39:02.146Z,1.60
2022-09-18T18:41:31.432Z,1.55
2022-09-18T18:44:06.018Z,2.00
2022-09-18T18:46:38.934Z,2.00
2022-09-18T18:49:09.520Z,1.80
2022-09-18T18:51:43.288Z,1.60
2022-09-18T18:54:11.495Z,1.77
2022-09-18T18:56:39.382Z,1.60
2022-09-18T18:59:10.347Z,1.60
2022-09-18T19:01:38.473Z,1.30
2022-09-18T19:04:09.553Z,1.55
2022-09-18T19:06:40.055Z,1.80
2022-09-18T19:09:20.060Z,1.40
2022-09-18T19:11:49.656Z,1.50
2022-09-18T19:14:19.008Z,1.60
2022-09-18T19:16:47.824Z,1.57
2022-09-18T19:19:17.761Z,1.90
2022-09-18T19:21:45.808Z,1.40
2022-09-18T19:24:14.175Z,1.50
2022-09-18T19:26:43.347Z,1.50
2022-09-18T19:29:15.219Z,1.40
2022-09-18T19:31:44.801Z,1.50
2022-09-18T19:34:14.879Z,1.60
2022-09-18T19:36:44.391Z,1.53
2022-09-18T19:39:12.395Z,1.40
2022-09-18T19:41:42.686Z,1.70
2022-09-18T19:44:34.936Z,1.50
2022-09-18T19:47:14.463Z,1.85
2022-09-18T19:49:42.324Z,1.73
2022-09-18T19:52:20.114Z,1.80
2022-09-18T19:54:49.072Z,2.00
2022-09-18T19:57:17.394Z,1.60
2022-09-18T19:59:47.226Z,1.60
2022-09-18T20:02:17.899Z,1.52
2022-09-18T20:04:45.551Z,1.60
2022-09-18T20:07:16.318Z,1.80
2022-09-18T20:09:44.605Z,1.80
2022-09-18T20:12:14.094Z,1.67
2022-09-18T20:14:43.718Z,1.60
2022-09-18T20:17:12.353Z,2.10
2022-09-18T20:19:40.793Z,1.42
2022-09-18T20:22:08.246Z,1.30
2022-09-18T20:24:36.049Z,1.70
2022-09-18T20:27:04.717Z,1.58
2022-09-18T20:29:32.513Z,1.40
2022-09-18T20:32:01.088Z,1.60
2022-09-18T20:34:28.567Z,1.40
2022-09-18T20:36:56.002Z,1.63
2022-09-18T20:39:23.594Z,1.33
2022-09-18T20:41:51.510Z,1.30
2022-09-18T20:44:19.829Z,1.33
2022-09-18T20:46:47.507Z,1.50
2022-09-18T20:49:18.263Z,1.48
2022-09-18T20:51:46.233Z,1.40
2022-09-18T20:54:15.363Z,1.50
2022-09-18T20:56:44.655Z,1.27
2022-09-18T20:59:16.744Z,1.55
2022-09-18T21:01:45.446Z,1.20
2022-09-18T21:04:19.527Z,1.40
2022-09-18T21:06:56.529Z,1.30
2022-09-18T21:09:27.404Z,1.38
2022-09-18T21:11:57.192Z,1.30
2022-09-18T21:14:25.699Z,1.45
2022-09-18T21:16:53.947Z,1.10
2022-09-18T21:19:21.620Z,1.17
2022-09-18T21:21:49.588Z,1.20
2022-09-18T21:24:17.676Z,1.40
2022-09-18T21:26:48.273Z,1.30
2022-09-18T21:29:22.974Z,1.40
2022-09-18T21:31:55.580Z,1.27
2022-09-18T21:34:34.166Z,1.10
2022-09-18T21:37:08.461Z,1.20
2022-09-18T21:39:36.322Z,1.30
2022-09-18T21:42:07.490Z,1.20
2022-09-18T21:44:37.938Z,1.17
2022-09-18T21:47:08.078Z,1.10
2022-09-18T21:49:35.700Z,1.20
2022-09-18T21:52:06.441Z,1.35
2022-09-18T21:54:34.420Z,1.40
2022-09-18T21:57:03.898Z,1.33
2022-09-18T21:59:32.426Z,1.20
2022-09-18T22:02:01.175Z,1.17
2022-09-18T22:04:32.426Z,1.30
2022-09-18T22:07:01.825Z,1.27
2022-09-18T22:09:32.971Z,1.00
2022-09-18T22:12:04.275Z,1.25
2022-09-18T22:14:34.115Z,1.10
2022-09-18T22:17:04.559Z,1.20
2022-09-18T22:19:33.474Z,1.30
2022-09-18T22:22:02.075Z,1.30
2022-09-18T22:24:30.016Z,1.33
2022-09-18T22:27:00.111Z,1.30
2022-09-18T22:29:30.999Z,1.20
2022-09-18T22:32:02.626Z,1.33
2022-09-18T22:34:32.712Z,1.33
2022-09-18T22:37:01.031Z,1.45
2022-09-18T22:39:29.001Z,1.40
2022-09-18T22:41:56.817Z,1.30
2022-09-18T22:44:24.279Z,1.33
2022-09-18T22:46:53.386Z,1.30
2022-09-18T22:49:22.929Z,1.20
2022-09-18T22:51:51.670Z,1.40
2022-09-18T22:54:26.640Z,1.50
2022-09-18T22:56:55.410Z,1.23
2022-09-18T22:59:25.241Z,1.25
2022-09-18T23:02:01.537Z,1.42
2022-09-18T23:04:31.850Z,1.30
2022-09-18T23:06:59.639Z,1.23
2022-09-18T23:09:27.766Z,1.17
2022-09-18T23:11:56.463Z,1.42
2022-09-18T23:14:26.465Z,1.30
2022-09-18T23:16:54.702Z,1.25
2022-09-18T23:19:28.783Z,1.10
2022-09-18T23:21:56.784Z,1.30
2022-09-18T23:24:25.038Z,1.20
2022-09-18T23:26:55.946Z,1.35
2022-09-18T23:29:24.985Z,1.40
2022-09-18T23:31:55.370Z,1.40
2022-09-18T23:34:26.886Z,1.40
2022-09-18T23:36:56.408Z,1.25
2022-09-18T23:39:28.823Z,1.20
2022-09-18T23:42:01.705Z,1.25
2022-09-18T23:44:31.541Z,1.30
2022-09-18T23:47:00.246Z,1.30
2022-09-18T23:49:28.967Z,1.10
2022-09-18T23:51:57.189Z,1.15
2022-09-18T23:54:27.859Z,1.20
2022-09-18T23:56:55.968Z,1.20
2022-09-18T23:59:25.140Z,1.05
